Time;durP1;ratioP1;P1;durP2;ratioP2;P2;SDS_P1;SDS_P2;PMS_P1;PMS_P2;Temp;Humidity;BMP_temperature;BMP_pressure;BME280_temperature;BME280_humidity;BME280_pressure;Samples;Min_cycle;Max_cycle;Signal;HPM_P1;HPM_P2
2023/10/29 00:01:08;;;;;;;10.10;4.60;;;;;;;;;;103856;1290;545779;-75
2023/10/29 00:04:46;;;;;;;9.00;4.10;;;;;;;;;;103685;1292;546292;-74
2023/10/29 00:08:23;;;;;;;8.60;4.10;;;;;;;;;;103767;1289;545533;-73
2023/10/29 00:12:01;;;;;;;8.20;3.70;;;;;;;;;;103723;1292;545673;-74
2023/10/29 00:15:38;;;;;;;7.90;3.40;;;;;;;;;;103765;1292;545527;-73
2023/10/29 00:19:15;;;;;;;8.20;4.20;;;;;;;;;;103916;1286;544911;-74
2023/10/29 00:22:53;;;;;;;9.70;4.70;;;;;;;;;;103763;1295;545758;-74
2023/10/29 00:26:31;;;;;;;11.70;4.90;;;;;;;;;;103778;1289;545294;-75
2023/10/29 00:30:08;;;;;;;9.70;4.60;;;;;;;;;;103690;1289;545245;-74
2023/10/29 00:33:46;;;;;;;9.30;5.00;;;;;;;;;;103762;1292;544812;-74
2023/10/29 00:37:23;;;;;;;11.00;5.30;;;;;;;;;;103752;1289;545246;-74
2023/10/29 00:41:01;;;;;;;10.30;3.90;;;;;;;;;;103754;1292;544926;-74
2023/10/29 00:44:38;;;;;;;8.30;3.40;;;;;;;;;;103759;1290;544794;-74
2023/10/29 00:48:16;;;;;;;9.10;4.00;;;;;;;;;;103687;1292;544971;-75
2023/10/29 00:51:53;;;;;;;10.20;4.30;;;;;;;;;;103711;1290;545604;-73
2023/10/29 00:55:31;;;;;;;9.10;4.00;;;;;;;;;;103434;1295;545010;-74
2023/10/29 00:59:11;;;;;;;8.10;3.50;;;;;;;;;;103715;1295;545012;-74
2023/10/29 01:02:46;;;;;;;9.20;3.90;;;;;;;;;;103806;1291;545202;-74
2023/10/29 01:06:23;;;;;;;9.10;3.60;;;;;;;;;;104045;1289;544989;-74
2023/10/29 01:10:00;;;;;;;9.10;3.30;;;;;;;;;;103867;1291;545359;-74
2023/10/29 01:13:38;;;;;;;8.70;3.30;;;;;;;;;;103742;1290;544999;-75
2023/10/29 01:17:16;;;;;;;8.40;3.20;;;;;;;;;;103705;1289;544731;-74
2023/10/29 01:20:52;;;;;;;10.50;3.30;;;;;;;;;;103813;1290;545176;-74
2023/10/29 01:24:30;;;;;;;7.50;3.00;;;;;;;;;;103745;1290;545945;-74
2023/10/29 01:28:07;;;;;;;6.70;2.70;;;;;;;;;;103741;1292;544986;-75
2023/10/29 01:31:48;;;;;;;10.00;3.30;;;;;;;;;;103757;1289;544958;-74
2023/10/29 01:35:22;;;;;;;6.90;2.90;;;;;;;;;;103784;1291;545345;-74
2023/10/29 01:39:00;;;;;;;6.20;2.40;;;;;;;;;;103696;1294;544845;-74
2023/10/29 01:42:33;;;;;;;7.60;2.50;;;;;;;;;;103845;1290;544931;-74
2023/10/29 01:46:16;;;;;;;6.80;2.80;;;;;;;;;;103744;1290;544810;-75
2023/10/29 01:49:54;;;;;;;6.10;2.30;;;;;;;;;;103729;1292;545258;-74
2023/10/29 01:53:31;;;;;;;8.20;2.80;;;;;;;;;;103730;1292;545013;-75
2023/10/29 01:57:05;;;;;;;7.70;2.90;;;;;;;;;;103874;1292;544754;-74
2023/10/29 02:00:44;;;;;;;8.90;3.00;;;;;;;;;;103869;1289;544791;-74
2023/10/29 02:04:26;;;;;;;7.30;2.60;;;;;;;;;;103777;1301;546607;-74
2023/10/29 02:08:05;;;;;;;6.80;2.70;;;;;;;;;;103842;1289;545358;-75
2023/10/29 02:11:42;;;;;;;7.00;2.70;;;;;;;;;;104035;1288;544980;-74
2023/10/29 02:15:25;;;;;;;7.40;2.80;;;;;;;;;;103685;1292;547989;-74
2023/10/29 02:18:57;;;;;;;8.00;2.80;;;;;;;;;;103697;1290;545954;-75
2023/10/29 02:22:35;;;;;;;7.10;2.80;;;;;;;;;;103722;1292;544950;-74
2023/10/29 02:26:12;;;;;;;7.60;2.70;;;;;;;;;;103750;1289;545690;-74
2023/10/29 02:29:49;;;;;;;8.40;2.90;;;;;;;;;;103798;1291;545535;-74
2023/10/29 02:33:26;;;;;;;6.90;2.70;;;;;;;;;;103657;1294;544754;-74
2023/10/29 02:37:04;;;;;;;8.00;3.00;;;;;;;;;;103796;1292;544717;-75
2023/10/29 02:40:43;;;;;;;8.20;3.00;;;;;;;;;;103746;1292;544799;-75
2023/10/29 02:44:15;;;;;;;7.00;2.60;;;;;;;;;;103870;1292;545273;-74
2023/10/29 02:47:54;;;;;;;7.10;3.00;;;;;;;;;;103637;1294;544938;-75
2023/10/29 02:51:34;;;;;;;7.60;2.90;;;;;;;;;;103803;1291;545271;-74
2023/10/29 02:55:12;;;;;;;10.30;3.00;;;;;;;;;;103800;1292;544944;-74
2023/10/29 02:58:49;;;;;;;7.30;2.60;;;;;;;;;;103861;1292;544676;-74
2023/10/29 03:02:26;;;;;;;7.60;2.80;;;;;;;;;;103919;1289;546017;-78
2023/10/29 03:06:05;;;;;;;7.30;2.80;;;;;;;;;;103827;1289;545592;-75
2023/10/29 03:09:41;;;;;;;7.70;2.80;;;;;;;;;;103759;1290;545380;-75
2023/10/29 03:13:19;;;;;;;7.90;2.40;;;;;;;;;;103750;1291;546317;-74
2023/10/29 03:16:56;;;;;;;7.30;2.60;;;;;;;;;;103720;1295;544948;-76
2023/10/29 03:20:33;;;;;;;7.40;2.60;;;;;;;;;;103748;1290;544963;-75
2023/10/29 03:24:11;;;;;;;7.00;2.80;;;;;;;;;;103922;1288;544934;-74
2023/10/29 03:27:49;;;;;;;6.10;2.20;;;;;;;;;;103800;1292;544992;-74
2023/10/29 03:31:26;;;;;;;6.60;2.30;;;;;;;;;;103823;1289;544979;-74
2023/10/29 03:35:04;;;;;;;6.70;2.50;;;;;;;;;;103710;1292;545045;-74
2023/10/29 03:38:41;;;;;;;7.10;2.60;;;;;;;;;;103743;1291;545926;-75
2023/10/29 03:42:15;;;;;;;8.20;2.90;;;;;;;;;;104384;1284;544903;-74
2023/10/29 03:45:56;;;;;;;7.20;2.30;;;;;;;;;;103704;1292;545514;-74
2023/10/29 03:49:34;;;;;;;7.30;2.10;;;;;;;;;;103711;1289;544781;-74
2023/10/29 03:53:07;;;;;;;6.70;2.40;;;;;;;;;;103799;1288;545444;-74
2023/10/29 03:56:51;;;;;;;7.00;2.50;;;;;;;;;;103797;1289;544772;-74
2023/10/29 04:00:29;;;;;;;7.60;2.40;;;;;;;;;;103817;1289;544886;-75
2023/10/29 04:04:05;;;;;;;8.50;3.30;;;;;;;;;;103768;1289;544990;-74
2023/10/29 04:07:43;;;;;;;7.20;3.10;;;;;;;;;;103842;1289;545340;-74
2023/10/29 04:11:20;;;;;;;9.80;3.10;;;;;;;;;;103785;1294;545675;-74
2023/10/29 04:14:58;;;;;;;10.10;3.40;;;;;;;;;;103854;1290;544970;-75
2023/10/29 04:18:35;;;;;;;7.90;3.00;;;;;;;;;;103737;1289;545243;-74
2023/10/29 04:22:13;;;;;;;7.70;2.90;;;;;;;;;;103761;1293;545032;-74
2023/10/29 04:25:50;;;;;;;9.10;3.00;;;;;;;;;;103816;1289;545132;-75
2023/10/29 04:29:28;;;;;;;9.10;3.50;;;;;;;;;;103744;1289;545245;-77
2023/10/29 04:33:01;;;;;;;8.70;3.20;;;;;;;;;;104112;1292;544824;-74
2023/10/29 04:36:42;;;;;;;8.80;3.30;;;;;;;;;;103801;1295;545619;-74
2023/10/29 04:40:25;;;;;;;8.70;2.70;;;;;;;;;;103770;1289;544751;-75
2023/10/29 04:44:04;;;;;;;8.00;2.50;;;;;;;;;;103747;1292;545945;-75
2023/10/29 04:47:40;;;;;;;5.20;2.10;;;;;;;;;;103782;1292;545506;-77
2023/10/29 04:51:17;;;;;;;9.30;2.50;;;;;;;;;;103776;1292;544959;-74
2023/10/29 04:54:55;;;;;;;6.60;2.30;;;;;;;;;;104234;1285;545044;-74
2023/10/29 04:58:32;;;;;;;9.90;3.90;;;;;;;;;;103878;1288;544970;-75
2023/10/29 05:02:09;;;;;;;8.60;3.50;;;;;;;;;;103725;1292;545007;-75
2023/10/29 05:05:47;;;;;;;7.20;2.90;;;;;;;;;;103691;1289;547585;-74
2023/10/29 05:09:25;;;;;;;8.40;2.90;;;;;;;;;;103515;1297;544939;-76
2023/10/29 05:13:02;;;;;;;5.90;2.40;;;;;;;;;;103751;1292;545934;-77
2023/10/29 05:16:40;;;;;;;6.70;2.30;;;;;;;;;;104050;1289;544984;-74
2023/10/29 05:20:13;;;;;;;6.70;2.60;;;;;;;;;;103785;1295;545512;-74
2023/10/29 05:23:51;;;;;;;10.00;3.40;;;;;;;;;;103671;1291;546472;-74
2023/10/29 05:27:34;;;;;;;11.70;4.60;;;;;;;;;;103749;1290;544887;-75
2023/10/29 05:31:07;;;;;;;6.80;2.30;;;;;;;;;;103804;1290;545107;-76
2023/10/29 05:34:49;;;;;;;6.60;2.30;;;;;;;;;;103815;1292;545970;-75
2023/10/29 05:38:26;;;;;;;6.30;1.90;;;;;;;;;;103876;1288;545013;-74
2023/10/29 05:42:04;;;;;;;6.80;2.10;;;;;;;;;;103623;1291;545026;-75
2023/10/29 05:45:41;;;;;;;8.20;2.40;;;;;;;;;;103767;1289;545095;-75
2023/10/29 05:49:19;;;;;;;6.70;2.10;;;;;;;;;;103921;1292;545020;-74
2023/10/29 05:52:56;;;;;;;5.60;1.90;;;;;;;;;;103680;1291;545468;-74
2023/10/29 05:56:33;;;;;;;7.20;1.90;;;;;;;;;;103804;1291;545201;-76
2023/10/29 06:00:11;;;;;;;9.50;2.80;;;;;;;;;;103825;1289;545037;-77
2023/10/29 06:03:48;;;;;;;13.40;4.80;;;;;;;;;;104643;1285;546119;-77
2023/10/29 06:07:26;;;;;;;12.60;5.10;;;;;;;;;;103785;1291;545008;-74
2023/10/29 06:11:03;;;;;;;13.30;5.10;;;;;;;;;;104023;1289;545064;-74
2023/10/29 06:14:45;;;;;;;11.10;4.30;;;;;;;;;;104220;1286;544924;-76
2023/10/29 06:18:18;;;;;;;8.30;3.10;;;;;;;;;;104078;1292;544810;-75
2023/10/29 06:21:56;;;;;;;9.10;3.30;;;;;;;;;;103800;1293;544734;-75
2023/10/29 06:25:53;;;;;;;7.70;2.60;;;;;;;;;;103643;1292;547999;-75
2023/10/29 06:29:11;;;;;;;7.70;2.50;;;;;;;;;;103730;1293;545073;-75
2023/10/29 06:32:48;;;;;;;6.60;2.10;;;;;;;;;;103722;1292;545870;-74
2023/10/29 06:36:26;;;;;;;5.20;1.90;;;;;;;;;;103730;1290;544922;-75
2023/10/29 06:40:03;;;;;;;5.30;1.80;;;;;;;;;;103799;1302;544944;-77
2023/10/29 06:43:41;;;;;;;8.80;2.80;;;;;;;;;;103762;1289;545030;-76
2023/10/29 06:47:18;;;;;;;6.60;2.60;;;;;;;;;;103709;1290;544867;-75
2023/10/29 06:50:57;;;;;;;8.60;3.50;;;;;;;;;;103600;1293;545616;-75
2023/10/29 06:54:33;;;;;;;10.30;3.60;;;;;;;;;;103763;1291;544790;-77
2023/10/29 06:58:11;;;;;;;9.30;3.50;;;;;;;;;;103721;1295;545421;-75
2023/10/29 07:01:49;;;;;;;11.10;4.00;;;;;;;;;;103805;1292;545576;-76
2023/10/29 07:05:25;;;;;;;11.10;3.50;;;;;;;;;;103776;1292;545522;-75
2023/10/29 07:09:03;;;;;;;10.50;3.20;;;;;;;;;;104136;1287;544987;-75
2023/10/29 07:12:40;;;;;;;8.10;2.90;;;;;;;;;;103752;1295;545398;-75
2023/10/29 07:16:18;;;;;;;6.80;2.30;;;;;;;;;;103737;1292;544984;-77
2023/10/29 07:19:55;;;;;;;7.20;2.60;;;;;;;;;;104015;1288;545104;-75
2023/10/29 07:23:32;;;;;;;8.70;2.40;;;;;;;;;;103746;1291;544814;-75
2023/10/29 07:27:10;;;;;;;7.60;2.80;;;;;;;;;;103699;1291;545260;-75
2023/10/29 07:30:48;;;;;;;9.30;3.10;;;;;;;;;;103936;1292;545077;-75
2023/10/29 07:34:31;;;;;;;9.40;3.30;;;;;;;;;;103768;1290;548051;-75
2023/10/29 07:38:03;;;;;;;7.20;2.50;;;;;;;;;;103485;1292;545699;-76
2023/10/29 07:41:40;;;;;;;7.20;2.30;;;;;;;;;;104221;1284;544727;-78
2023/10/29 07:45:17;;;;;;;7.60;2.50;;;;;;;;;;103707;1292;544782;-75
2023/10/29 07:48:55;;;;;;;6.30;2.30;;;;;;;;;;103708;1291;545443;-75
2023/10/29 07:52:39;;;;;;;6.60;2.10;;;;;;;;;;103713;1292;545662;-75
2023/10/29 07:56:10;;;;;;;6.80;2.20;;;;;;;;;;103734;1292;544891;-75
2023/10/29 07:59:47;;;;;;;5.60;2.20;;;;;;;;;;103896;1293;544906;-76
2023/10/29 08:03:25;;;;;;;11.50;4.80;;;;;;;;;;103727;1296;545732;-75
2023/10/29 08:07:04;;;;;;;8.10;3.80;;;;;;;;;;103764;1291;544809;-77
2023/10/29 08:10:39;;;;;;;8.10;2.50;;;;;;;;;;103765;1289;545499;-76
2023/10/29 08:14:16;;;;;;;5.80;2.10;;;;;;;;;;103913;1301;545565;-75
2023/10/29 08:17:54;;;;;;;7.40;2.30;;;;;;;;;;103793;1292;545526;-75
2023/10/29 08:21:32;;;;;;;10.30;4.00;;;;;;;;;;104569;1282;545141;-75
2023/10/29 08:25:09;;;;;;;10.10;4.30;;;;;;;;;;103818;1295;545508;-76
2023/10/29 08:28:47;;;;;;;6.90;2.50;;;;;;;;;;103847;1289;546257;-78
2023/10/29 08:32:26;;;;;;;6.20;2.10;;;;;;;;;;103845;1291;545933;-76
2023/10/29 08:36:01;;;;;;;7.00;2.40;;;;;;;;;;103753;1292;544969;-75
2023/10/29 08:39:39;;;;;;;7.30;2.70;;;;;;;;;;103668;1292;544777;-74
2023/10/29 08:43:17;;;;;;;8.20;3.30;;;;;;;;;;103637;1289;545336;-74
2023/10/29 08:46:54;;;;;;;9.00;3.50;;;;;;;;;;104310;1286;545313;-74
2023/10/29 08:50:32;;;;;;;6.90;2.30;;;;;;;;;;103745;1289;544824;-75
2023/10/29 08:54:15;;;;;;;6.60;2.00;;;;;;;;;;103612;1295;548610;-77
2023/10/29 08:57:46;;;;;;;7.20;2.00;;;;;;;;;;103745;1289;545432;-75
2023/10/29 09:01:24;;;;;;;7.00;2.30;;;;;;;;;;103796;1290;544742;-74
2023/10/29 09:05:02;;;;;;;5.30;1.80;;;;;;;;;;103866;1292;544776;-75
2023/10/29 09:08:39;;;;;;;5.90;2.10;;;;;;;;;;103803;1292;544850;-75
2023/10/29 09:12:16;;;;;;;5.70;1.90;;;;;;;;;;103764;1291;544962;-74
2023/10/29 09:15:59;;;;;;;6.80;2.40;;;;;;;;;;104643;1284;545350;-74
2023/10/29 09:19:32;;;;;;;7.20;2.60;;;;;;;;;;103788;1291;545671;-75
2023/10/29 09:23:09;;;;;;;6.30;2.50;;;;;;;;;;104495;1286;545322;-76
2023/10/29 09:26:42;;;;;;;6.40;2.60;;;;;;;;;;103844;1288;545740;-76
2023/10/29 09:30:24;;;;;;;6.00;2.30;;;;;;;;;;103738;1289;544997;-75
2023/10/29 09:34:07;;;;;;;7.00;2.60;;;;;;;;;;103713;1291;547928;-74
2023/10/29 09:37:39;;;;;;;8.00;2.70;;;;;;;;;;104123;1286;544918;-74
2023/10/29 09:41:19;;;;;;;7.60;3.30;;;;;;;;;;103787;1291;545086;-73
2023/10/29 09:44:57;;;;;;;6.50;2.80;;;;;;;;;;103762;1291;545149;-77
2023/10/29 09:48:33;;;;;;;6.10;2.40;;;;;;;;;;103786;1289;544977;-73
2023/10/29 09:52:09;;;;;;;5.50;2.00;;;;;;;;;;103725;1293;544988;-74
2023/10/29 09:55:47;;;;;;;5.10;2.10;;;;;;;;;;103827;1293;544821;-74
2023/10/29 09:59:24;;;;;;;6.90;2.30;;;;;;;;;;103750;1292;544775;-74
2023/10/29 10:03:01;;;;;;;8.10;2.80;;;;;;;;;;103742;1290;544760;-74
2023/10/29 10:06:40;;;;;;;8.40;2.70;;;;;;;;;;103804;1292;544842;-74
2023/10/29 10:10:16;;;;;;;5.50;1.90;;;;;;;;;;103760;1291;545472;-78
2023/10/29 10:13:54;;;;;;;6.70;2.40;;;;;;;;;;103870;1295;544719;-78
2023/10/29 10:17:31;;;;;;;9.70;2.30;;;;;;;;;;104547;1285;545958;-74
2023/10/29 10:21:08;;;;;;;7.40;2.90;;;;;;;;;;103780;1290;545662;-74
2023/10/29 10:24:48;;;;;;;5.00;1.80;;;;;;;;;;103758;1292;545568;-74
2023/10/29 10:28:23;;;;;;;5.60;2.30;;;;;;;;;;103798;1292;545415;-74
2023/10/29 10:32:02;;;;;;;6.20;2.20;;;;;;;;;;103870;1288;545507;-75
2023/10/29 10:35:42;;;;;;;7.30;2.80;;;;;;;;;;103891;1289;544587;-75
2023/10/29 10:39:22;;;;;;;5.70;2.30;;;;;;;;;;103760;1289;545011;-75
2023/10/29 10:42:54;;;;;;;5.50;2.00;;;;;;;;;;103940;1289;545087;-75
2023/10/29 10:46:33;;;;;;;5.90;2.10;;;;;;;;;;103734;1291;544994;-76
2023/10/29 10:50:09;;;;;;;5.80;1.90;;;;;;;;;;103755;1289;545492;-74
2023/10/29 10:53:46;;;;;;;5.30;1.90;;;;;;;;;;103718;1295;545028;-75
2023/10/29 10:57:23;;;;;;;5.20;1.90;;;;;;;;;;103930;1293;544907;-74
2023/10/29 11:01:00;;;;;;;4.60;1.90;;;;;;;;;;103775;1289;544901;-74
2023/10/29 11:04:38;;;;;;;6.30;1.80;;;;;;;;;;103945;1289;544773;-75
2023/10/29 11:08:16;;;;;;;6.20;2.40;;;;;;;;;;103750;1292;544784;-80
2023/10/29 11:11:53;;;;;;;5.90;2.20;;;;;;;;;;103757;1291;544825;-77
2023/10/29 11:15:44;;;;;;;6.10;2.20;;;;;;;;;;104166;1289;544788;-74
2023/10/29 11:19:26;;;;;;;6.40;2.30;;;;;;;;;;103734;1295;544727;-74
2023/10/29 11:22:47;;;;;;;6.40;2.40;;;;;;;;;;103757;1290;545729;-77
2023/10/29 11:26:27;;;;;;;6.20;2.30;;;;;;;;;;103789;1292;545372;-84
2023/10/29 11:30:13;;;;;;;5.50;1.70;;;;;;;;;;103757;1292;545608;-76
2023/10/29 11:33:38;;;;;;;4.90;1.90;;;;;;;;;;103756;1290;544940;-76
2023/10/29 11:37:44;;;;;;;6.40;2.20;;;;;;;;;;103800;1290;544965;-79
2023/10/29 11:40:53;;;;;;;6.10;2.30;;;;;;;;;;103807;1292;545003;-78
2023/10/29 11:44:32;;;;;;;5.50;1.90;;;;;;;;;;103770;1290;545436;-76
2023/10/29 11:48:08;;;;;;;4.60;1.90;;;;;;;;;;103464;1294;545406;-80
2023/10/29 11:51:51;;;;;;;4.30;1.90;;;;;;;;;;103789;1289;545516;-80
2023/10/29 11:55:21;;;;;;;5.50;1.80;;;;;;;;;;104002;1292;545116;-76
2023/10/29 11:59:05;;;;;;;4.80;1.90;;;;;;;;;;103989;1292;544983;-83
2023/10/29 12:02:43;;;;;;;4.80;2.00;;;;;;;;;;103909;1289;544912;-80
2023/10/29 12:06:16;;;;;;;5.00;1.90;;;;;;;;;;103942;1295;545033;-75
2023/10/29 12:10:01;;;;;;;5.20;2.20;;;;;;;;;;103942;1292;545103;-74
2023/10/29 12:13:41;;;;;;;5.80;2.20;;;;;;;;;;103819;1290;545072;-75
2023/10/29 12:17:13;;;;;;;6.70;2.20;;;;;;;;;;104113;1288;544895;-74
2023/10/29 12:20:49;;;;;;;5.90;2.20;;;;;;;;;;104161;1289;545275;-75
2023/10/29 12:24:27;;;;;;;6.20;2.40;;;;;;;;;;103724;1291;544879;-74
2023/10/29 12:28:08;;;;;;;6.70;2.50;;;;;;;;;;103809;1291;544886;-77
2023/10/29 12:31:45;;;;;;;7.50;2.70;;;;;;;;;;104040;1289;544956;-74
2023/10/29 12:35:33;;;;;;;6.80;2.80;;;;;;;;;;103762;1304;546177;-75
2023/10/29 12:38:53;;;;;;;6.40;2.50;;;;;;;;;;103813;1289;545483;-75
2023/10/29 12:42:53;;;;;;;7.40;2.90;;;;;;;;;;103863;1288;545032;-74
2023/10/29 12:46:16;;;;;;;6.60;2.50;;;;;;;;;;103806;1289;545365;-74
2023/10/29 12:50:06;;;;;;;4.60;1.80;;;;;;;;;;103860;1292;544928;-75
2023/10/29 12:53:28;;;;;;;5.00;1.80;;;;;;;;;;103743;1289;544868;-77
2023/10/29 12:57:11;;;;;;;6.00;2.20;;;;;;;;;;104162;1289;545296;-75
2023/10/29 13:00:42;;;;;;;5.50;1.80;;;;;;;;;;104302;1285;545191;-80
2023/10/29 13:04:23;;;;;;;4.90;1.60;;;;;;;;;;103803;1289;545253;-80
2023/10/29 13:07:59;;;;;;;8.80;3.20;;;;;;;;;;103724;1291;545960;-74
2023/10/29 13:11:33;;;;;;;8.20;3.60;;;;;;;;;;103784;1291;545061;-74
2023/10/29 13:15:12;;;;;;;9.50;3.90;;;;;;;;;;103711;1291;545057;-74
2023/10/29 13:18:49;;;;;;;9.60;4.50;;;;;;;;;;103739;1292;544949;-75
2023/10/29 13:22:22;;;;;;;10.10;4.20;;;;;;;;;;103793;1288;545380;-74
2023/10/29 13:26:07;;;;;;;12.90;7.30;;;;;;;;;;103637;1292;545106;-76
2023/10/29 13:29:43;;;;;;;9.00;5.20;;;;;;;;;;104611;1286;544985;-74
2023/10/29 13:33:21;;;;;;;6.90;3.20;;;;;;;;;;103783;1289;544841;-73
2023/10/29 13:36:54;;;;;;;4.90;2.40;;;;;;;;;;104026;1288;544935;-79
2023/10/29 13:40:36;;;;;;;7.10;2.70;;;;;;;;;;103970;1299;545460;-73
2023/10/29 13:44:15;;;;;;;10.70;3.00;;;;;;;;;;103736;1289;544844;-74
2023/10/29 13:47:51;;;;;;;9.00;3.80;;;;;;;;;;103788;1292;545328;-74
2023/10/29 13:51:28;;;;;;;7.20;2.90;;;;;;;;;;103897;1291;546152;-73
2023/10/29 13:55:01;;;;;;;7.70;2.80;;;;;;;;;;103798;1295;544723;-73
2023/10/29 13:58:43;;;;;;;6.30;2.80;;;;;;;;;;103848;1292;545493;-80
2023/10/29 14:02:20;;;;;;;10.30;4.40;;;;;;;;;;103843;1295;546083;-77
2023/10/29 14:06:00;;;;;;;9.90;4.30;;;;;;;;;;103602;1292;544860;-73
2023/10/29 14:09:35;;;;;;;8.60;4.20;;;;;;;;;;103791;1292;544863;-76
2023/10/29 14:13:09;;;;;;;8.20;3.80;;;;;;;;;;104167;1288;544775;-73
2023/10/29 14:16:50;;;;;;;7.70;3.20;;;;;;;;;;103806;1291;545201;-73
2023/10/29 14:20:23;;;;;;;6.90;3.40;;;;;;;;;;103972;1289;545067;-73
2023/10/29 14:24:09;;;;;;;7.90;4.10;;;;;;;;;;103862;1289;545700;-73
2023/10/29 14:27:46;;;;;;;13.30;6.60;;;;;;;;;;103848;1290;545023;-75
2023/10/29 14:31:24;;;;;;;13.60;7.10;;;;;;;;;;103892;1289;544978;-74
2023/10/29 14:35:02;;;;;;;14.50;7.30;;;;;;;;;;103373;1298;545505;-73
2023/10/29 14:38:38;;;;;;;12.10;6.40;;;;;;;;;;103761;1292;544841;-74
2023/10/29 14:42:16;;;;;;;10.70;5.60;;;;;;;;;;103766;1289;545021;-73
2023/10/29 14:45:54;;;;;;;10.00;4.80;;;;;;;;;;104036;1287;546481;-73
2023/10/29 14:49:31;;;;;;;9.40;4.40;;;;;;;;;;103491;1294;545503;-73
2023/10/29 14:53:08;;;;;;;8.50;4.40;;;;;;;;;;103701;1292;545668;-73
2023/10/29 14:56:46;;;;;;;8.30;3.90;;;;;;;;;;103825;1292;544817;-73
2023/10/29 15:00:24;;;;;;;11.50;6.60;;;;;;;;;;103816;1289;546131;-75
2023/10/29 15:03:57;;;;;;;12.50;6.90;;;;;;;;;;103875;1289;546056;-74
2023/10/29 15:07:38;;;;;;;18.80;12.80;;;;;;;;;;103688;1292;544904;-74
2023/10/29 15:11:16;;;;;;;15.70;10.10;;;;;;;;;;103727;1297;545587;-73
2023/10/29 15:14:49;;;;;;;11.30;6.80;;;;;;;;;;104262;1288;544771;-72
2023/10/29 15:18:34;;;;;;;10.50;4.70;;;;;;;;;;103653;1295;545373;-73
2023/10/29 15:22:12;;;;;;;11.40;6.10;;;;;;;;;;103725;1296;545321;-74
2023/10/29 15:25:49;;;;;;;9.70;5.00;;;;;;;;;;103840;1289;544831;-75
2023/10/29 15:29:27;;;;;;;11.90;6.40;;;;;;;;;;103753;1292;545043;-73
2023/10/29 15:33:04;;;;;;;15.30;8.80;;;;;;;;;;103912;1288;544782;-73
2023/10/29 15:36:42;;;;;;;13.90;7.90;;;;;;;;;;103865;1290;545359;-74
2023/10/29 15:40:19;;;;;;;12.00;7.10;;;;;;;;;;103770;1289;545755;-74
2023/10/29 15:43:56;;;;;;;10.70;6.70;;;;;;;;;;104160;1285;545105;-73
2023/10/29 15:47:34;;;;;;;9.00;5.10;;;;;;;;;;103796;1294;545470;-74
2023/10/29 15:51:31;;;;;;;10.60;5.30;;;;;;;;;;103749;1291;547811;-73
2023/10/29 15:54:51;;;;;;;12.80;7.30;;;;;;;;;;103777;1289;546516;-73
2023/10/29 15:58:26;;;;;;;15.00;8.90;;;;;;;;;;104514;1290;545298;-75
2023/10/29 16:02:05;;;;;;;14.70;7.80;;;;;;;;;;103742;1289;544810;-72
2023/10/29 16:05:42;;;;;;;11.80;6.30;;;;;;;;;;103989;1288;544757;-74
2023/10/29 16:09:18;;;;;;;10.40;5.60;;;;;;;;;;103751;1289;545016;-76
2023/10/29 16:12:56;;;;;;;10.50;5.50;;;;;;;;;;103789;1289;545452;-73
2023/10/29 16:16:34;;;;;;;11.60;6.10;;;;;;;;;;103853;1291;545662;-73
2023/10/29 16:20:11;;;;;;;12.30;6.10;;;;;;;;;;103797;1294;544812;-73
2023/10/29 16:23:49;;;;;;;11.00;5.70;;;;;;;;;;103754;1290;545431;-73
2023/10/29 16:27:27;;;;;;;11.50;4.70;;;;;;;;;;103757;1291;545557;-73
2023/10/29 16:31:03;;;;;;;9.30;4.20;;;;;;;;;;103790;1304;545100;-73
2023/10/29 16:34:41;;;;;;;9.80;4.50;;;;;;;;;;103955;1288;545326;-73
2023/10/29 16:38:18;;;;;;;8.00;3.70;;;;;;;;;;103632;1290;544746;-73
2023/10/29 16:42:13;;;;;;;9.10;3.80;;;;;;;;;;103786;1292;548461;-73
2023/10/29 16:45:42;;;;;;;9.60;4.30;;;;;;;;;;103743;1292;545166;-73
2023/10/29 16:49:08;;;;;;;9.00;3.80;;;;;;;;;;104027;1287;545005;-74
2023/10/29 16:52:48;;;;;;;9.90;4.80;;;;;;;;;;103947;1289;545082;-73
2023/10/29 16:56:26;;;;;;;15.90;8.30;;;;;;;;;;103729;1291;545585;-74
2023/10/29 17:00:04;;;;;;;12.90;6.80;;;;;;;;;;103690;1289;545559;-74
2023/10/29 17:03:41;;;;;;;12.90;6.50;;;;;;;;;;103893;1288;545903;-73
2023/10/29 17:07:21;;;;;;;15.10;6.90;;;;;;;;;;103754;1291;544977;-73
2023/10/29 17:10:57;;;;;;;13.40;6.70;;;;;;;;;;103844;1289;544948;-76
2023/10/29 17:14:33;;;;;;;12.90;6.70;;;;;;;;;;103845;1289;545440;-80
2023/10/29 17:18:10;;;;;;;9.10;4.20;;;;;;;;;;103743;1295;544947;-81
2023/10/29 17:21:48;;;;;;;11.30;5.20;;;;;;;;;;103813;1291;544984;-77
2023/10/29 17:25:25;;;;;;;10.20;4.50;;;;;;;;;;103804;1289;545141;-74
2023/10/29 17:29:09;;;;;;;9.80;4.80;;;;;;;;;;103678;1291;547742;-75
2023/10/29 17:32:41;;;;;;;10.50;5.50;;;;;;;;;;103627;1291;544605;-73
2023/10/29 17:36:15;;;;;;;11.40;5.60;;;;;;;;;;103569;1292;546783;-74
2023/10/29 17:39:51;;;;;;;13.00;6.30;;;;;;;;;;103945;1289;545394;-73
2023/10/29 17:43:33;;;;;;;11.90;5.40;;;;;;;;;;103862;1292;545985;-73
2023/10/29 17:47:06;;;;;;;14.10;6.60;;;;;;;;;;103726;1292;545740;-77
2023/10/29 17:50:56;;;;;;;11.00;4.80;;;;;;;;;;103666;1291;545957;-73
2023/10/29 17:54:26;;;;;;;9.80;4.80;;;;;;;;;;103864;1288;545340;-73
2023/10/29 17:58:03;;;;;;;10.80;4.90;;;;;;;;;;103736;1289;547549;-74
2023/10/29 18:01:40;;;;;;;11.00;5.30;;;;;;;;;;103725;1291;544878;-73
2023/10/29 18:05:18;;;;;;;9.60;4.60;;;;;;;;;;103683;1292;544891;-75
2023/10/29 18:09:00;;;;;;;10.80;5.40;;;;;;;;;;103591;1292;548179;-74
2023/10/29 18:12:32;;;;;;;15.00;5.00;;;;;;;;;;103820;1292;546790;-74
2023/10/29 18:16:12;;;;;;;11.60;5.30;;;;;;;;;;103635;1296;545950;-80
2023/10/29 18:19:47;;;;;;;12.60;5.20;;;;;;;;;;103834;1291;545378;-74
2023/10/29 18:23:28;;;;;;;10.10;5.10;;;;;;;;;;103759;1291;545290;-74
2023/10/29 18:27:02;;;;;;;9.20;4.50;;;;;;;;;;103746;1292;544798;-74
2023/10/29 18:30:40;;;;;;;10.90;4.90;;;;;;;;;;103749;1297;545083;-73
2023/10/29 18:34:19;;;;;;;9.10;3.70;;;;;;;;;;103722;1288;546068;-73
2023/10/29 18:38:14;;;;;;;8.50;3.80;;;;;;;;;;103713;1292;547791;-73
2023/10/29 18:41:38;;;;;;;11.80;4.20;;;;;;;;;;103456;1291;548019;-73
2023/10/29 18:45:11;;;;;;;9.60;4.80;;;;;;;;;;104116;1286;545462;-74
2023/10/29 18:48:47;;;;;;;9.50;5.10;;;;;;;;;;103832;1289;545672;-73
2023/10/29 18:52:24;;;;;;;12.60;5.60;;;;;;;;;;104362;1291;544988;-78
2023/10/29 18:56:18;;;;;;;13.50;6.10;;;;;;;;;;103760;1292;547842;-73
2023/10/29 18:59:40;;;;;;;10.60;4.80;;;;;;;;;;103781;1292;544790;-74
2023/10/29 19:03:20;;;;;;;9.40;4.50;;;;;;;;;;103770;1289;545380;-74
2023/10/29 19:06:55;;;;;;;11.10;4.60;;;;;;;;;;103738;1293;545313;-75
2023/10/29 19:10:32;;;;;;;10.90;4.50;;;;;;;;;;103608;1294;544896;-81
2023/10/29 19:14:12;;;;;;;8.90;4.40;;;;;;;;;;103772;1288;545039;-73
2023/10/29 19:17:47;;;;;;;8.60;4.20;;;;;;;;;;103526;1306;545967;-73
2023/10/29 19:21:21;;;;;;;9.20;4.40;;;;;;;;;;103867;1289;545636;-75
2023/10/29 19:25:02;;;;;;;9.80;4.40;;;;;;;;;;103726;1291;544800;-73
2023/10/29 19:28:39;;;;;;;10.20;5.00;;;;;;;;;;104036;1289;544772;-76
2023/10/29 19:32:14;;;;;;;10.50;5.20;;;;;;;;;;103874;1290;544952;-74
2023/10/29 19:35:55;;;;;;;7.80;3.40;;;;;;;;;;103695;1291;545586;-74
2023/10/29 19:39:31;;;;;;;10.20;4.30;;;;;;;;;;103779;1292;545028;-74
2023/10/29 19:43:10;;;;;;;9.10;4.20;;;;;;;;;;103713;1290;545066;-82
2023/10/29 19:46:48;;;;;;;8.00;3.80;;;;;;;;;;103559;1293;544837;-73
2023/10/29 19:50:24;;;;;;;8.00;3.40;;;;;;;;;;103389;1294;544842;-76
2023/10/29 19:54:07;;;;;;;8.90;3.60;;;;;;;;;;103724;1295;545052;-74
2023/10/29 19:57:39;;;;;;;9.00;3.80;;;;;;;;;;103764;1291;544858;-73
2023/10/29 20:01:22;;;;;;;10.70;4.60;;;;;;;;;;103763;1291;546085;-73
2023/10/29 20:04:54;;;;;;;10.90;4.10;;;;;;;;;;103821;1288;546039;-73
2023/10/29 20:08:32;;;;;;;11.00;4.80;;;;;;;;;;103833;1288;545493;-73
2023/10/29 20:12:11;;;;;;;12.50;5.60;;;;;;;;;;103747;1291;544837;-74
2023/10/29 20:15:52;;;;;;;13.10;5.30;;;;;;;;;;103582;1297;548103;-73
2023/10/29 20:19:23;;;;;;;10.60;4.90;;;;;;;;;;103720;1291;545639;-74
2023/10/29 20:23:03;;;;;;;11.10;4.80;;;;;;;;;;103706;1289;544975;-73
2023/10/29 20:26:39;;;;;;;9.00;4.30;;;;;;;;;;104025;1289;545127;-73
2023/10/29 20:30:15;;;;;;;9.40;3.80;;;;;;;;;;103772;1292;545724;-73
2023/10/29 20:33:54;;;;;;;8.30;3.70;;;;;;;;;;103797;1290;544959;-73
2023/10/29 20:37:31;;;;;;;9.60;4.30;;;;;;;;;;103817;1291;545514;-74
2023/10/29 20:41:08;;;;;;;11.10;4.20;;;;;;;;;;103553;1292;544756;-73
2023/10/29 20:44:45;;;;;;;10.70;4.40;;;;;;;;;;103717;1296;544709;-73
2023/10/29 20:48:24;;;;;;;9.00;3.40;;;;;;;;;;103831;1292;544774;-73
2023/10/29 20:52:02;;;;;;;9.50;3.90;;;;;;;;;;103702;1306;545343;-74
2023/10/29 20:55:38;;;;;;;9.50;3.40;;;;;;;;;;103729;1291;544863;-74
2023/10/29 20:59:15;;;;;;;7.90;3.30;;;;;;;;;;103764;1289;545380;-73